Time;durP1;ratioP1;P1;durP2;ratioP2;P2;SDS_P1;SDS_P2;PMS_P1;PMS_P2;Temp;Humidity;BMP_temperature;BMP_pressure;BME280_temperature;BME280_humidity;BME280_pressure;Samples;Min_cycle;Max_cycle;Signal;HPM_P1;HPM_P2
2023/11/29 00:01:15;;;;;;;11.55;9.07;;;-1.10;99.90;;;;;;4915549;29;20387;-66
2023/11/29 00:03:40;;;;;;;12.43;9.13;;;-1.10;99.90;;;;;;4914549;29;20278;-66
2023/11/29 00:06:06;;;;;;;13.82;10.13;;;-1.00;99.90;;;;;;4914944;29;20028;-66
2023/11/29 00:08:32;;;;;;;12.80;9.75;;;-1.00;99.90;;;;;;4914925;29;20028;-66
2023/11/29 00:10:57;;;;;;;16.75;10.80;;;-1.00;99.90;;;;;;4912015;29;20036;-66
2023/11/29 00:13:23;;;;;;;15.90;10.75;;;-1.00;99.90;;;;;;4914581;29;20136;-65
2023/11/29 00:15:49;;;;;;;16.63;11.00;;;-1.00;99.90;;;;;;4914999;29;20024;-66
2023/11/29 00:18:15;;;;;;;16.52;10.55;;;-1.10;99.90;;;;;;4915296;29;20042;-66
2023/11/29 00:20:41;;;;;;;15.73;10.15;;;-1.10;99.90;;;;;;4914069;29;20668;-66
2023/11/29 00:23:07;;;;;;;15.35;10.63;;;-1.10;99.90;;;;;;4915040;29;20442;-66
2023/11/29 00:25:33;;;;;;;14.90;10.85;;;-1.10;99.90;;;;;;4913826;29;20038;-66
2023/11/29 00:27:58;;;;;;;16.55;11.38;;;-1.10;99.90;;;;;;4914713;29;20025;-66
2023/11/29 00:30:24;;;;;;;17.63;12.13;;;-1.20;99.90;;;;;;4914286;29;20040;-66
2023/11/29 00:32:50;;;;;;;18.23;11.57;;;-1.10;99.90;;;;;;4914917;29;20036;-65
2023/11/29 00:35:17;;;;;;;16.80;11.25;;;-1.10;99.90;;;;;;4914640;29;20039;-66
2023/11/29 00:37:43;;;;;;;19.13;12.25;;;-1.10;99.90;;;;;;4911103;29;20043;-66
2023/11/29 00:40:09;;;;;;;15.45;10.90;;;-1.10;99.90;;;;;;4914289;29;20028;-66
2023/11/29 00:42:35;;;;;;;16.67;11.45;;;-1.10;99.90;;;;;;4913398;29;20035;-66
2023/11/29 00:45:00;;;;;;;16.40;10.50;;;-1.10;99.90;;;;;;4915192;29;20470;-65
2023/11/29 00:47:26;;;;;;;16.63;11.18;;;-1.20;99.90;;;;;;4913931;29;20114;-66
2023/11/29 00:49:51;;;;;;;20.90;13.02;;;-1.30;99.90;;;;;;4916850;29;20020;-67
2023/11/29 00:52:17;;;;;;;17.40;11.90;;;-1.30;99.90;;;;;;4914575;29;20163;-66
2023/11/29 00:54:43;;;;;;;19.35;12.68;;;-1.50;99.90;;;;;;4920377;29;20040;-66
2023/11/29 00:57:08;;;;;;;21.17;12.43;;;-1.60;99.90;;;;;;4914264;29;20055;-66
2023/11/29 00:59:34;;;;;;;19.48;11.52;;;-1.70;99.90;;;;;;4914341;29;20032;-66
2023/11/29 01:01:59;;;;;;;17.25;11.98;;;-1.80;99.90;;;;;;4914430;29;20079;-66
2023/11/29 01:04:25;;;;;;;17.58;11.02;;;-1.90;99.90;;;;;;4914424;29;20446;-65
2023/11/29 01:06:51;;;;;;;16.80;11.20;;;-1.90;99.90;;;;;;4914530;29;20115;-65
2023/11/29 01:09:17;;;;;;;17.20;11.30;;;-1.90;99.90;;;;;;4914799;29;20064;-65
2023/11/29 01:11:43;;;;;;;16.65;11.32;;;-1.90;99.90;;;;;;4913624;29;20068;-66
2023/11/29 01:14:08;;;;;;;17.90;11.77;;;-1.90;99.90;;;;;;4914740;29;20036;-66
2023/11/29 01:16:34;;;;;;;20.63;11.20;;;-1.90;99.90;;;;;;4913734;29;20103;-65
2023/11/29 01:18:59;;;;;;;17.35;11.70;;;-1.90;99.90;;;;;;4914140;29;20028;-65
2023/11/29 01:21:27;;;;;;;19.73;12.32;;;-1.90;99.90;;;;;;4913432;29;20028;-65
2023/11/29 01:23:53;;;;;;;19.27;12.05;;;-1.90;99.90;;;;;;4914593;29;20422;-65
2023/11/29 01:26:18;;;;;;;18.88;12.18;;;-1.80;99.90;;;;;;4914366;29;20036;-65
2023/11/29 01:28:44;;;;;;;21.30;12.70;;;-1.80;99.90;;;;;;4913295;29;20115;-65
2023/11/29 01:31:10;;;;;;;16.88;11.43;;;-1.80;99.90;;;;;;4913786;29;20473;-65
2023/11/29 01:33:35;;;;;;;17.35;11.10;;;-1.70;99.90;;;;;;4913792;29;20028;-65
2023/11/29 01:36:11;;;;;;;18.45;12.02;;;-1.70;99.90;;;;;;4898643;29;20095;-65
2023/11/29 01:38:37;;;;;;;18.50;11.88;;;-1.70;99.90;;;;;;4913370;29;20059;-67
2023/11/29 01:41:03;;;;;;;17.13;11.00;;;-1.70;99.90;;;;;;4913423;29;20036;-66
2023/11/29 01:43:29;;;;;;;17.88;11.35;;;-1.70;99.90;;;;;;4913676;29;20032;-65
2023/11/29 01:45:55;;;;;;;16.45;11.13;;;-1.70;99.90;;;;;;4913347;29;20508;-65
2023/11/29 01:48:22;;;;;;;18.00;11.40;;;-1.70;99.90;;;;;;4914162;29;20158;-66
2023/11/29 01:50:52;;;;;;;18.45;11.85;;;-1.70;99.90;;;;;;4913686;29;20071;-65
2023/11/29 01:53:21;;;;;;;18.40;12.38;;;-1.70;99.90;;;;;;4906641;29;20040;-65
2023/11/29 01:55:50;;;;;;;21.30;12.52;;;-1.70;99.90;;;;;;4912097;29;20541;-65
2023/11/29 01:58:17;;;;;;;20.65;12.32;;;-1.70;99.90;;;;;;4897725;29;20035;-66
2023/11/29 02:00:43;;;;;;;21.23;13.50;;;-1.70;99.90;;;;;;4912772;29;20036;-65
2023/11/29 02:03:09;;;;;;;18.55;12.20;;;-1.70;99.90;;;;;;4914327;29;20028;-65
2023/11/29 02:05:35;;;;;;;20.17;12.95;;;-1.70;99.90;;;;;;4896240;29;20028;-67
2023/11/29 02:08:00;;;;;;;17.73;12.60;;;-1.60;99.90;;;;;;4914261;29;20059;-67
2023/11/29 02:10:26;;;;;;;18.42;12.07;;;-1.70;99.90;;;;;;4913217;29;20115;-65
2023/11/29 02:12:52;;;;;;;18.85;12.65;;;-1.70;99.90;;;;;;4913721;29;20067;-65
2023/11/29 02:15:17;;;;;;;22.75;13.43;;;-1.80;99.90;;;;;;4913952;29;20040;-65
2023/11/29 02:17:43;;;;;;;21.02;12.00;;;-1.80;99.90;;;;;;4912400;29;20390;-65
2023/11/29 02:20:13;;;;;;;18.88;11.80;;;-1.90;99.90;;;;;;4913991;29;20035;-65
2023/11/29 02:22:40;;;;;;;20.23;12.48;;;-2.00;99.90;;;;;;4912507;29;20068;-65
2023/11/29 02:25:06;;;;;;;19.73;12.25;;;-2.10;99.90;;;;;;4913898;29;20111;-66
2023/11/29 02:27:32;;;;;;;19.83;12.23;;;-2.20;99.90;;;;;;4912596;29;20107;-65
2023/11/29 02:29:58;;;;;;;19.38;11.82;;;;;;;;;;4913200;29;20123;-65
2023/11/29 02:32:24;;;;;;;19.83;11.70;;;;;;;;;;4912545;29;20050;-65
2023/11/29 02:34:50;;;;;;;22.45;13.07;;;-2.40;99.90;;;;;;4913821;29;20478;-66
2023/11/29 02:37:15;;;;;;;22.02;13.02;;;-2.50;99.90;;;;;;4913066;29;20131;-66
2023/11/29 02:39:41;;;;;;;20.63;12.18;;;-2.60;99.90;;;;;;4912746;29;20051;-65
2023/11/29 02:42:06;;;;;;;20.63;12.07;;;-2.70;99.90;;;;;;4913493;29;20035;-66
2023/11/29 02:44:32;;;;;;;21.88;12.68;;;-2.80;99.90;;;;;;4913083;29;20439;-66
2023/11/29 02:46:57;;;;;;;19.77;11.77;;;-2.80;99.90;;;;;;4912928;29;20040;-66
2023/11/29 02:49:26;;;;;;;21.77;12.25;;;-2.80;99.90;;;;;;4913175;29;20124;-66
2023/11/29 02:51:51;;;;;;;19.60;11.95;;;-2.80;99.90;;;;;;4908997;29;20668;-66
2023/11/29 02:54:18;;;;;;;20.42;11.90;;;-2.80;99.90;;;;;;4917088;29;20116;-67
2023/11/29 02:56:44;;;;;;;17.98;11.05;;;;;;;;;;4898633;29;20327;-66
2023/11/29 02:59:10;;;;;;;20.05;11.40;;;;;;;;;;4917218;29;20118;-66
2023/11/29 03:01:36;;;;;;;19.85;11.35;;;;;;;;;;4915833;29;20028;-66
2023/11/29 03:04:02;;;;;;;17.88;10.38;;;;;;;;;;4901963;29;20024;-66
2023/11/29 03:06:28;;;;;;;18.52;10.13;;;;;;;;;;4915949;29;20040;-66
2023/11/29 03:08:54;;;;;;;17.25;9.43;;;;;;;;;;4916886;29;20021;-66
2023/11/29 03:11:20;;;;;;;16.58;9.45;;;;;;;;;;4916716;29;20530;-66
2023/11/29 03:13:46;;;;;;;16.77;9.52;;;;;;;;;;4916238;29;20025;-66
2023/11/29 03:16:12;;;;;;;16.30;9.65;;;;;;;;;;4916682;29;20513;-66
2023/11/29 03:18:38;;;;;;;15.57;9.48;;;;;;;;;;4915642;29;20104;-66
2023/11/29 03:21:04;;;;;;;14.30;8.38;;;;;;;;;;4916448;29;20036;-66
2023/11/29 03:23:30;;;;;;;17.65;9.90;;;;;;;;;;4916083;29;20112;-66
2023/11/29 03:25:56;;;;;;;17.90;9.38;;;;;;;;;;4916420;29;20120;-66
2023/11/29 03:28:22;;;;;;;16.38;8.63;;;;;;;;;;4916292;29;20028;-66
2023/11/29 03:30:48;;;;;;;17.30;9.23;;;;;;;;;;4915652;29;20151;-66
2023/11/29 03:33:14;;;;;;;17.15;9.13;;;;;;;;;;4916686;29;20095;-66
2023/11/29 03:35:39;;;;;;;15.35;8.77;;;;;;;;;;4914859;29;20029;-66
2023/11/29 03:38:05;;;;;;;18.35;9.40;;;;;;;;;;4916219;29;20051;-66
2023/11/29 03:40:31;;;;;;;14.98;8.88;;;;;;;;;;4915284;29;20466;-66
2023/11/29 03:42:57;;;;;;;16.55;9.55;;;;;;;;;;4923319;29;20036;-67
2023/11/29 03:45:23;;;;;;;15.88;8.73;;;;;;;;;;4917928;29;20078;-67
2023/11/29 03:47:49;;;;;;;15.73;8.52;;;;;;;;;;4917344;29;20034;-66
2023/11/29 03:50:15;;;;;;;19.27;8.70;;;;;;;;;;4917126;29;20087;-68
2023/11/29 03:52:41;;;;;;;16.25;9.70;;;;;;;;;;4909901;29;20091;-67
2023/11/29 03:55:07;;;;;;;17.85;10.10;;;;;;;;;;4916152;29;20240;-66
2023/11/29 03:57:34;;;;;;;18.00;9.77;;;;;;;;;;4914989;29;20031;-66
2023/11/29 04:00:00;;;;;;;17.48;8.90;;;;;;;;;;4916054;29;20028;-66
2023/11/29 04:02:26;;;;;;;19.00;10.60;;;;;;;;;;4914771;29;20076;-66
2023/11/29 04:04:52;;;;;;;18.48;10.70;;;;;;;;;;4915513;29;20430;-67
2023/11/29 04:07:18;;;;;;;20.60;10.68;;;;;;;;;;4915254;29;20056;-67
2023/11/29 04:09:44;;;;;;;20.13;11.00;;;;;;;;;;4914870;29;20025;-66
2023/11/29 04:12:10;;;;;;;18.55;10.70;;;;;;;;;;4915233;29;20489;-66
2023/11/29 04:14:37;;;;;;;20.52;11.27;;;;;;;;;;4915260;29;20024;-66
2023/11/29 04:17:03;;;;;;;18.88;10.95;;;;;;;;;;4915085;29;20043;-66
2023/11/29 04:19:29;;;;;;;18.88;11.05;;;;;;;;;;4914544;29;20032;-66
2023/11/29 04:21:56;;;;;;;21.20;11.98;;;;;;;;;;4914912;29;20032;-66
2023/11/29 04:24:22;;;;;;;20.92;10.95;;;;;;;;;;4915498;29;20422;-66
2023/11/29 04:26:48;;;;;;;19.27;11.20;;;;;;;;;;4914719;29;20055;-66
2023/11/29 04:29:14;;;;;;;19.10;10.85;;;;;;;;;;4915563;29;20028;-65
2023/11/29 04:31:40;;;;;;;19.25;11.45;;;;;;;;;;4914125;29;20166;-65
2023/11/29 04:34:07;;;;;;;18.67;10.93;;;;;;;;;;4915006;29;20787;-66
2023/11/29 04:36:33;;;;;;;19.23;11.02;;;;;;;;;;4913925;29;20032;-66
2023/11/29 04:38:59;;;;;;;17.40;10.98;;;;;;;;;;4915356;29;20024;-65
2023/11/29 04:41:25;;;;;;;16.70;11.05;;;;;;;;;;4914222;29;20489;-66
2023/11/29 04:43:51;;;;;;;18.45;11.30;;;;;;;;;;4915150;29;20115;-66
2023/11/29 04:46:17;;;;;;;17.40;10.80;;;;;;;;;;4914656;29;20035;-66
2023/11/29 04:48:44;;;;;;;17.27;10.32;;;;;;;;;;4914594;29;20020;-66
2023/11/29 04:51:10;;;;;;;18.48;10.48;;;;;;;;;;4906310;29;20517;-66
2023/11/29 04:53:38;;;;;;;18.05;11.07;;;;;;;;;;4910961;29;20036;-66
2023/11/29 04:56:04;;;;;;;19.00;10.50;;;;;;;;;;4914525;29;20020;-66
2023/11/29 04:58:30;;;;;;;16.98;10.60;;;;;;;;;;4913534;29;20163;-66
2023/11/29 05:00:56;;;;;;;16.65;9.80;;;;;;;;;;4914643;29;20024;-66
2023/11/29 05:03:22;;;;;;;17.95;10.35;;;;;;;;;;4914685;29;20552;-66
2023/11/29 05:05:48;;;;;;;18.58;11.02;;;;;;;;;;4914421;29;20120;-66
2023/11/29 05:08:14;;;;;;;13.98;9.05;;;;;;;;;;4915044;29;20099;-66
2023/11/29 05:10:41;;;;;;;17.58;10.95;;;;;;;;;;4913797;29;20028;-66
2023/11/29 05:13:07;;;;;;;17.40;10.43;;;;;;;;;;4914609;29;20120;-66
2023/11/29 05:15:34;;;;;;;17.42;10.82;;;;;;;;;;4912898;29;20020;-66
2023/11/29 05:18:00;;;;;;;17.98;11.30;;;;;;;;;;4914778;29;20083;-66
2023/11/29 05:20:26;;;;;;;17.45;10.43;;;;;;;;;;4913058;29;20024;-67
2023/11/29 05:22:52;;;;;;;17.10;11.15;;;;;;;;;;4914438;29;20063;-66
2023/11/29 05:25:19;;;;;;;17.00;10.25;;;;;;;;;;4914990;29;20036;-66
2023/11/29 05:27:45;;;;;;;18.52;10.48;;;;;;;;;;4913664;29;20032;-66
2023/11/29 05:30:11;;;;;;;16.25;9.90;;;;;;;;;;4914450;29;20024;-66
2023/11/29 05:32:37;;;;;;;15.95;9.35;;;;;;;;;;4912986;29;20343;-66
2023/11/29 05:35:03;;;;;;;15.10;9.73;;;;;;;;;;4914558;29;20032;-66
2023/11/29 05:37:30;;;;;;;17.52;10.20;;;;;;;;;;4913063;29;20178;-66
2023/11/29 05:39:56;;;;;;;14.10;9.00;;;;;;;;;;4914434;29;20032;-66
2023/11/29 05:42:23;;;;;;;16.58;10.18;;;;;;;;;;4913599;29;20564;-66
2023/11/29 05:44:49;;;;;;;16.98;10.05;;;;;;;;;;4914251;29;20025;-66
2023/11/29 05:47:16;;;;;;;17.23;9.48;;;;;;;;;;4914056;29;20040;-66
2023/11/29 05:49:42;;;;;;;16.27;9.40;;;;;;;;;;4913385;29;20024;-66
2023/11/29 05:52:08;;;;;;;14.57;8.45;;;;;;;;;;4902386;29;20549;-66
2023/11/29 05:54:34;;;;;;;15.20;9.27;;;;;;;;;;4913503;29;20032;-66
2023/11/29 05:57:00;;;;;;;17.10;9.68;;;;;;;;;;4913766;29;20032;-66
2023/11/29 05:59:26;;;;;;;14.65;9.48;;;;;;;;;;4913284;29;20027;-67
2023/11/29 06:01:54;;;;;;;15.88;10.18;;;;;;;;;;4913649;29;20078;-66
2023/11/29 06:04:21;;;;;;;19.17;10.13;;;;;;;;;;4913955;29;20031;-65
2023/11/29 06:06:47;;;;;;;16.85;10.82;;;;;;;;;;4912938;29;20115;-66
2023/11/29 06:09:14;;;;;;;16.98;9.82;;;;;;;;;;4914034;29;20076;-66
2023/11/29 06:11:41;;;;;;;15.07;9.55;;;;;;;;;;4912493;29;20516;-66
2023/11/29 06:14:07;;;;;;;16.88;10.10;;;;;;;;;;4914488;29;20534;-66
2023/11/29 06:16:33;;;;;;;13.90;8.38;;;;;;;;;;4913105;29;20107;-66
2023/11/29 06:18:59;;;;;;;15.13;9.75;;;;;;;;;;4913937;29;20315;-66
2023/11/29 06:21:25;;;;;;;13.57;8.57;;;;;;;;;;4913077;29;20048;-67
2023/11/29 06:23:51;;;;;;;15.65;9.75;;;;;;;;;;4913499;29;20390;-70
2023/11/29 06:26:19;;;;;;;14.38;8.90;;;;;;;;;;4914246;29;20024;-66
2023/11/29 06:28:46;;;;;;;14.90;9.38;;;;;;;;;;4916666;29;20159;-68
2023/11/29 06:31:12;;;;;;;14.77;8.70;;;;;;;;;;4916920;29;20040;-63
2023/11/29 06:33:38;;;;;;;13.88;8.65;;;;;;;;;;4916746;29;20143;-64
2023/11/29 06:36:04;;;;;;;14.60;8.73;;;;;;;;;;4916936;29;20026;-63
2023/11/29 06:38:31;;;;;;;16.15;9.13;;;;;;;;;;4916102;29;20112;-67
2023/11/29 06:40:57;;;;;;;15.07;9.65;;;;;;;;;;4917051;29;20107;-64
2023/11/29 06:43:24;;;;;;;14.40;9.27;;;;;;;;;;4916750;29;20043;-70
2023/11/29 06:45:50;;;;;;;16.63;8.70;;;;;;;;;;4916620;29;20024;-64
2023/11/29 06:48:18;;;;;;;14.75;9.32;;;;;;;;;;4917034;29;20035;-64
2023/11/29 06:50:44;;;;;;;16.67;9.85;;;;;;;;;;4915594;29;20120;-70
2023/11/29 06:53:10;;;;;;;15.75;9.05;;;;;;;;;;4917026;29;20116;-64
2023/11/29 06:55:37;;;;;;;19.73;9.90;;;;;;;;;;4915751;29;20035;-65
2023/11/29 06:58:03;;;;;;;14.15;9.32;;;;;;;;;;4917181;29;20028;-64
2023/11/29 07:00:29;;;;;;;14.90;9.20;;;;;;;;;;4915561;29;20393;-62
2023/11/29 07:02:55;;;;;;;14.48;9.57;;;;;;;;;;4917023;29;20032;-64
2023/11/29 07:05:21;;;;;;;15.85;9.60;;;;;;;;;;4916645;29;20443;-64
2023/11/29 07:07:48;;;;;;;14.80;9.85;;;;;;;;;;4916448;29;20035;-63
2023/11/29 07:10:14;;;;;;;16.17;9.45;;;;;;;;;;4917169;29;20095;-63
2023/11/29 07:12:40;;;;;;;12.95;8.90;;;;;;;;;;4915337;29;20035;-63
2023/11/29 07:15:07;;;;;;;13.82;8.93;;;;;;;;;;4916830;29;20036;-63
2023/11/29 07:17:33;;;;;;;17.42;9.07;;;;;;;;;;4915485;29;20032;-63
2023/11/29 07:20:04;;;;;;;17.02;10.13;;;;;;;;;;4916092;29;20068;-63
2023/11/29 07:22:32;;;;;;;16.40;9.73;;;;;;;;;;4915305;29;20032;-63
2023/11/29 07:24:58;;;;;;;15.45;9.25;;;;;;;;;;4916493;29;20080;-63
2023/11/29 07:27:24;;;;;;;14.25;8.48;;;;;;;;;;4915858;29;20044;-64
2023/11/29 07:29:50;;;;;;;18.50;10.30;;;;;;;;;;4916234;29;20063;-63
2023/11/29 07:32:17;;;;;;;16.27;9.50;;;;;;;;;;4916060;29;20036;-63
2023/11/29 07:34:46;;;;;;;16.13;9.70;;;;;;;;;;4923184;29;20039;-64
2023/11/29 07:37:12;;;;;;;13.88;8.75;;;;;;;;;;4921620;29;20104;-63
2023/11/29 07:39:38;;;;;;;12.38;8.40;;;;;;;;;;4914925;29;20020;-63
2023/11/29 07:42:05;;;;;;;15.90;8.93;;;;;;;;;;4899051;29;20032;-63
2023/11/29 07:44:31;;;;;;;12.07;8.18;;;;;;;;;;4915381;29;20036;-63
2023/11/29 07:46:56;;;;;;;17.00;9.30;;;;;;;;;;4916067;29;20039;-63
2023/11/29 07:49:23;;;;;;;11.27;7.70;;;;;;;;;;4915965;29;20033;-63
2023/11/29 07:51:49;;;;;;;13.10;7.45;;;;;;;;;;4913965;29;20028;-63
2023/11/29 07:54:15;;;;;;;11.63;7.50;;;0.00;99.90;;;;;;4916088;29;20032;-63
2023/11/29 07:56:42;;;;;;;11.60;7.70;;;0.00;99.90;;;;;;4914896;29;20032;-65
2023/11/29 07:59:12;;;;;;;13.10;7.55;;;0.00;99.90;;;;;;4916228;29;20375;-65
2023/11/29 08:01:38;;;;;;;11.32;7.35;;;0.10;99.90;;;;;;4914655;29;20044;-64
2023/11/29 08:04:04;;;;;;;10.73;6.60;;;0.10;99.90;;;;;;4915924;29;20036;-64
2023/11/29 08:06:33;;;;;;;9.77;6.68;;;0.20;99.90;;;;;;4914833;29;20032;-65
2023/11/29 08:09:00;;;;;;;13.07;6.65;;;0.40;99.90;;;;;;4915935;29;20028;-65
2023/11/29 08:11:26;;;;;;;10.57;7.05;;;0.40;99.90;;;;;;4914617;29;20044;-65
2023/11/29 08:13:52;;;;;;;10.43;7.20;;;0.40;99.90;;;;;;4916060;29;20111;-64
2023/11/29 08:16:17;;;;;;;9.48;6.40;;;0.50;99.90;;;;;;4915476;29;20111;-65
2023/11/29 08:18:43;;;;;;;10.68;6.43;;;0.50;99.90;;;;;;4914428;29;20819;-65
2023/11/29 08:21:09;;;;;;;9.35;6.30;;;0.50;99.90;;;;;;4914711;29;20062;-64
2023/11/29 08:23:35;;;;;;;9.18;6.00;;;0.60;99.90;;;;;;4914620;29;20035;-65
2023/11/29 08:26:00;;;;;;;8.00;6.05;;;0.70;99.90;;;;;;4900018;29;20032;-64
2023/11/29 08:28:26;;;;;;;11.00;6.15;;;0.80;99.90;;;;;;4915105;29;20461;-64
2023/11/29 08:30:52;;;;;;;8.75;6.00;;;0.80;99.90;;;;;;4915178;29;20091;-64
2023/11/29 08:33:17;;;;;;;10.38;6.38;;;0.80;99.90;;;;;;4916901;29;20032;-64
2023/11/29 08:35:44;;;;;;;9.95;6.55;;;0.90;99.90;;;;;;4914212;29;20039;-66
2023/11/29 08:38:10;;;;;;;13.07;6.03;;;0.90;99.90;;;;;;4914880;29;20509;-66
2023/11/29 08:40:36;;;;;;;9.40;6.82;;;1.00;99.90;;;;;;4914320;29;20059;-66
2023/11/29 08:43:02;;;;;;;10.80;6.88;;;0.90;99.90;;;;;;4915237;29;20039;-65
2023/11/29 08:45:28;;;;;;;10.07;6.28;;;1.00;99.90;;;;;;4914253;29;20465;-66
2023/11/29 08:47:54;;;;;;;10.52;6.63;;;1.00;99.90;;;;;;4915363;29;20066;-66
2023/11/29 08:50:19;;;;;;;9.38;6.55;;;1.00;99.90;;;;;;4913757;29;20435;-65
2023/11/29 08:52:46;;;;;;;10.20;6.43;;;1.10;99.90;;;;;;4913830;29;20111;-66
2023/11/29 08:55:12;;;;;;;10.13;5.90;;;1.10;99.90;;;;;;4914373;29;20567;-66
2023/11/29 08:57:38;;;;;;;9.93;6.47;;;1.10;99.90;;;;;;4913685;29;20035;-66
2023/11/29 09:00:04;;;;;;;9.27;6.57;;;1.20;99.90;;;;;;4898184;29;20039;-65
2023/11/29 09:02:29;;;;;;;8.65;6.18;;;1.20;99.90;;;;;;4912367;29;20123;-65
2023/11/29 09:04:55;;;;;;;8.35;5.20;;;1.30;99.90;;;;;;4914763;29;20115;-65
2023/11/29 09:07:21;;;;;;;9.95;5.57;;;1.30;99.90;;;;;;4914212;29;20029;-65
2023/11/29 09:09:47;;;;;;;6.07;4.88;;;1.40;99.90;;;;;;4914194;29;20497;-65
2023/11/29 09:12:17;;;;;;;7.22;5.07;;;1.40;99.90;;;;;;4914202;29;20038;-65
2023/11/29 09:14:43;;;;;;;12.43;5.75;;;1.40;99.90;;;;;;4914039;29;20131;-65
2023/11/29 09:17:09;;;;;;;5.78;4.32;;;1.50;99.90;;;;;;4914324;29;20040;-65
2023/11/29 09:19:35;;;;;;;9.80;5.55;;;1.50;99.90;;;;;;4913622;29;20068;-65
2023/11/29 09:22:05;;;;;;;7.05;5.13;;;1.40;99.90;;;;;;4898577;29;20064;-66
2023/11/29 09:24:31;;;;;;;6.55;5.00;;;1.40;99.90;;;;;;4913843;29;20035;-65
2023/11/29 09:26:56;;;;;;;7.53;5.35;;;1.40;99.90;;;;;;4914246;29;20036;-68
2023/11/29 09:29:25;;;;;;;7.15;5.10;;;1.40;99.90;;;;;;4915082;29;20470;-66
2023/11/29 09:31:52;;;;;;;11.82;5.07;;;1.50;99.90;;;;;;4915540;29;20079;-67
2023/11/29 09:34:17;;;;;;;8.35;5.97;;;1.50;99.90;;;;;;4914619;29;20069;-67
2023/11/29 09:36:43;;;;;;;8.35;5.50;;;1.60;99.90;;;;;;4896310;29;20604;-64
2023/11/29 09:39:13;;;;;;;7.07;4.95;;;1.80;99.90;;;;;;4914509;29;20151;-66
2023/11/29 09:41:43;;;;;;;7.38;5.25;;;1.80;99.90;;;;;;4913442;29;20474;-65
2023/11/29 09:44:10;;;;;;;10.00;5.60;;;1.80;99.90;;;;;;4914485;29;20146;-65
2023/11/29 09:46:37;;;;;;;7.28;5.00;;;1.80;99.90;;;;;;4913157;29;20107;-66
2023/11/29 09:49:04;;;;;;;7.63;5.25;;;1.80;99.90;;;;;;4909241;29;20033;-65
2023/11/29 09:51:30;;;;;;;6.32;4.53;;;1.90;99.90;;;;;;4909179;29;20063;-66
2023/11/29 09:53:57;;;;;;;7.88;4.68;;;1.80;99.90;;;;;;4914495;29;20474;-66
2023/11/29 09:56:23;;;;;;;8.00;5.30;;;1.90;99.90;;;;;;4913122;29;20028;-67
2023/11/29 09:58:49;;;;;;;6.93;4.53;;;1.80;99.90;;;;;;4914344;29;20036;-67
2023/11/29 10:01:15;;;;;;;6.07;4.53;;;1.70;99.90;;;;;;4914863;29;20409;-65
2023/11/29 10:03:41;;;;;;;6.32;4.80;;;1.80;99.90;;;;;;4918017;29;20299;-67
2023/11/29 10:06:08;;;;;;;6.97;4.78;;;1.80;99.90;;;;;;4918033;29;20475;-67
2023/11/29 10:08:34;;;;;;;9.25;4.28;;;1.80;99.90;;;;;;4917284;29;20062;-65
2023/11/29 10:11:00;;;;;;;6.50;4.43;;;1.80;99.90;;;;;;4917718;29;20076;-67
2023/11/29 10:13:28;;;;;;;5.53;3.95;;;1.80;99.90;;;;;;4917737;29;20032;-67
2023/11/29 10:15:54;;;;;;;6.00;4.30;;;1.90;99.90;;;;;;4920013;29;20059;-70
2023/11/29 10:18:21;;;;;;;6.35;5.03;;;1.90;99.90;;;;;;4924948;29;20036;-68
2023/11/29 10:20:48;;;;;;;5.30;4.00;;;1.90;99.90;;;;;;4919335;29;20035;-65
2023/11/29 10:23:14;;;;;;;7.70;4.50;;;1.90;99.90;;;;;;4917885;29;20044;-67
2023/11/29 10:25:41;;;;;;;5.93;4.30;;;2.10;99.90;;;;;;4916637;29;20056;-66
2023/11/29 10:28:06;;;;;;;4.88;4.10;;;2.20;99.90;;;;;;4920349;29;20032;-66
2023/11/29 10:30:32;;;;;;;7.28;4.13;;;2.50;99.90;;;;;;4917685;29;20080;-66
2023/11/29 10:32:59;;;;;;;6.45;4.13;;;2.60;99.90;;;;;;4917792;29;20071;-66
2023/11/29 10:35:28;;;;;;;5.43;4.07;;;2.80;99.90;;;;;;4916661;29;20079;-67
2023/11/29 10:38:00;;;;;;;5.75;4.20;;;2.80;99.90;;;;;;4916972;29;20055;-67
2023/11/29 10:40:27;;;;;;;5.47;4.18;;;2.80;99.90;;;;;;4916612;29;20036;-66
2023/11/29 10:42:54;;;;;;;5.45;3.95;;;2.80;99.90;;;;;;4917664;29;20040;-67
2023/11/29 10:45:21;;;;;;;6.32;4.30;;;2.70;99.90;;;;;;4916010;29;20043;-66
2023/11/29 10:47:58;;;;;;;5.10;4.20;;;2.70;99.90;;;;;;4917980;29;20027;-66
2023/11/29 10:50:25;;;;;;;6.43;4.90;;;2.70;99.90;;;;;;4911993;29;20112;-67
2023/11/29 10:52:51;;;;;;;7.80;4.97;;;2.70;99.90;;;;;;4914734;29;20106;-67
2023/11/29 10:55:20;;;;;;;5.28;3.92;;;2.80;99.90;;;;;;4916913;29;20028;-66
2023/11/29 10:57:50;;;;;;;7.68;4.07;;;2.80;99.90;;;;;;4916919;29;20040;-66
2023/11/29 11:00:18;;;;;;;9.48;5.65;;;3.00;99.90;;;;;;4917240;29;20618;-66
2023/11/29 11:02:48;;;;;;;5.18;4.15;;;3.00;99.90;;;;;;4916873;29;20039;-66
2023/11/29 11:05:17;;;;;;;5.63;3.95;;;3.00;99.90;;;;;;4917871;29;20032;-67
2023/11/29 11:07:48;;;;;;;8.40;4.32;;;3.00;99.90;;;;;;4916721;29;20088;-66
2023/11/29 11:10:15;;;;;;;6.05;4.32;;;3.00;99.90;;;;;;4916503;29;20090;-66
2023/11/29 11:12:42;;;;;;;8.88;5.38;;;3.00;99.90;;;;;;4915894;29;20044;-67
2023/11/29 11:15:12;;;;;;;6.07;4.82;;;3.00;99.90;;;;;;4916440;29;20029;-69
2023/11/29 11:17:38;;;;;;;;;;;3.00;99.90;;;;;;4916033;29;20032;-61
2023/11/29 11:20:06;;;;;;;5.60;3.78;;;3.00;99.90;;;;;;4916811;29;20288;-67
2023/11/29 11:22:41;;;;;;;4.40;3.28;;;3.00;99.90;;;;;;4916046;29;20466;-67
2023/11/29 11:25:12;;;;;;;5.75;3.60;;;3.10;99.90;;;;;;4916772;29;20055;-65
2023/11/29 11:27:43;;;;;;;5.70;3.15;;;3.30;99.90;;;;;;4915857;29;20549;-66
2023/11/29 11:30:14;;;;;;;5.38;3.13;;;3.50;99.90;;;;;;4916262;29;20028;-66
2023/11/29 11:32:40;;;;;;;5.10;3.47;;;3.50;99.90;;;;;;4899087;29;20816;-66
2023/11/29 11:35:18;;;;;;;4.82;3.38;;;3.60;99.90;;;;;;4898228;29;20033;-66
2023/11/29 11:37:48;;;;;;;3.08;2.75;;;3.60;99.90;;;;;;4896523;29;21046;-66
2023/11/29 11:40:14;;;;;;;;;;;3.60;99.90;;;;;;4898833;29;20040;-66
2023/11/29 11:42:41;;;;;;;5.50;3.08;;;3.60;99.90;;;;;;4896424;29;20475;-66
2023/11/29 11:45:11;;;;;;;5.82;3.17;;;3.60;99.90;;;;;;4904931;29;20079;-66
2023/11/29 11:47:37;;;;;;;;;;;3.70;99.90;;;;;;4916343;29;20043;-66
2023/11/29 11:50:04;;;;;;;3.20;2.67;;;3.70;99.90;;;;;;4916359;29;19910;-67
2023/11/29 11:52:30;;;;;;;3.40;2.45;;;3.70;99.90;;;;;;4915369;29;20047;-68
2023/11/29 11:54:55;;;;;;;6.55;3.05;;;3.80;99.90;;;;;;4916799;29;20368;-67
2023/11/29 11:57:21;;;;;;;11.10;2.80;;;3.80;99.90;;;;;;4914910;29;20036;-67
2023/11/29 11:59:47;;;;;;;3.40;2.53;;;3.80;99.90;;;;;;4915644;29;20055;-66
2023/11/29 12:02:13;;;;;;;4.78;2.83;;;3.90;99.90;;;;;;4916410;29;20537;-65
2023/11/29 12:04:38;;;;;;;4.18;2.72;;;3.90;99.90;;;;;;4916200;29;20370;-66
2023/11/29 12:07:05;;;;;;;5.88;2.65;;;3.90;99.90;;;;;;4915989;29;20035;-66
2023/11/29 12:09:33;;;;;;;4.47;2.85;;;3.90;99.90;;;;;;4915253;29;20532;-66
2023/11/29 12:12:12;;;;;;;4.18;3.10;;;3.90;99.90;;;;;;4915969;29;20397;-66
2023/11/29 12:14:42;;;;;;;4.45;2.50;;;3.90;99.90;;;;;;4915913;29;20039;-66
2023/11/29 12:17:07;;;;;;;4.35;2.78;;;3.80;99.90;;;;;;4916270;29;20043;-66
2023/11/29 12:19:33;;;;;;;4.90;2.70;;;3.80;99.90;;;;;;4915639;29;20028;-65
2023/11/29 12:22:01;;;;;;;6.57;2.78;;;3.80;99.90;;;;;;4914520;29;20047;-67
2023/11/29 12:24:32;;;;;;;4.63;2.92;;;3.70;99.90;;;;;;4915223;29;20036;-68
2023/11/29 12:27:07;;;;;;;4.85;3.20;;;3.60;99.90;;;;;;4915674;29;20047;-67
2023/11/29 12:29:36;;;;;;;4.18;2.97;;;3.60;99.90;;;;;;4915794;29;20111;-67
2023/11/29 12:32:06;;;;;;;3.70;2.83;;;3.50;99.90;;;;;;4915883;29;20047;-67
2023/11/29 12:34:33;;;;;;;4.22;2.88;;;3.40;99.90;;;;;;4915608;29;20309;-67
2023/11/29 12:37:00;;;;;;;3.25;2.53;;;3.50;99.90;;;;;;4917568;29;20493;-67
2023/11/29 12:39:30;;;;;;;6.05;2.72;;;3.50;99.90;;;;;;4934533;29;20036;-66
2023/11/29 12:41:56;;;;;;;6.28;2.72;;;3.50;99.90;;;;;;4934834;29;20562;-65
2023/11/29 12:44:24;;;;;;;3.38;2.65;;;3.50;99.90;;;;;;4931491;29;20036;-66
2023/11/29 12:46:50;;;;;;;4.50;2.67;;;3.60;99.90;;;;;;4933094;29;20421;-65
2023/11/29 12:49:17;;;;;;;4.82;2.67;;;3.60;99.90;;;;;;4935133;29;20079;-65
2023/11/29 12:51:49;;;;;;;5.93;2.83;;;3.60;99.90;;;;;;4933429;29;20042;-66
2023/11/29 12:54:14;;;;;;;3.33;2.67;;;3.60;99.90;;;;;;4935151;29;20466;-65
2023/11/29 12:56:40;;;;;;;3.30;3.00;;;3.50;99.90;;;;;;4933248;29;20087;-66
2023/11/29 12:59:07;;;;;;;3.15;2.60;;;3.50;99.90;;;;;;4934569;29;20082;-66
2023/11/29 13:01:33;;;;;;;7.07;2.55;;;3.50;99.90;;;;;;4933435;29;20042;-65
2023/11/29 13:04:00;;;;;;;3.17;2.78;;;3.40;99.90;;;;;;4932002;29;20032;-65
2023/11/29 13:06:25;;;;;;;4.18;2.88;;;3.40;99.90;;;;;;4933454;29;20030;-65
2023/11/29 13:08:52;;;;;;;4.18;2.95;;;3.20;99.90;;;;;;4934405;29;20111;-65
2023/11/29 13:11:17;;;;;;;4.97;3.15;;;3.20;99.90;;;;;;4937412;29;20027;-66
2023/11/29 13:13:43;;;;;;;10.02;2.80;;;3.10;99.90;;;;;;4934888;29;20055;-66
2023/11/29 13:16:11;;;;;;;5.93;2.85;;;3.10;99.90;;;;;;4933810;29;20028;-66
2023/11/29 13:18:37;;;;;;;3.47;2.97;;;3.00;99.90;;;;;;4932989;29;20066;-66